sensor_id;sensor_type;location;lat;lon;timestamp;temperature;humidity
20233;DHT22;37438;55.674;13.074;2023-09-08T00:02:50;18.00;99.90
20233;DHT22;37438;55.674;13.074;2023-09-08T00:05:55;18.00;99.90
20233;DHT22;37438;55.674;13.074;2023-09-08T00:08:59;18.00;99.90
20233;DHT22;37438;55.674;13.074;2023-09-08T00:12:04;18.10;99.90
20233;DHT22;37438;55.674;13.074;2023-09-08T00:15:08;18.00;99.90
20233;DHT22;37438;55.674;13.074;2023-09-08T00:18:13;18.10;99.90
20233;DHT22;37438;55.674;13.074;2023-09-08T00:21:17;18.20;99.90
20233;DHT22;37438;55.674;13.074;2023-09-08T00:24:22;18.20;99.90
20233;DHT22;37438;55.674;13.074;2023-09-08T00:27:27;18.10;99.90
20233;DHT22;37438;55.674;13.074;2023-09-08T00:30:31;18.20;99.90
20233;DHT22;37438;55.674;13.074;2023-09-08T00:33:35;18.20;99.90
20233;DHT22;37438;55.674;13.074;2023-09-08T00:36:41;18.20;99.90
20233;DHT22;37438;55.674;13.074;2023-09-08T00:39:46;18.10;99.90
20233;DHT22;37438;55.674;13.074;2023-09-08T00:42:51;18.20;99.90
20233;DHT22;37438;55.674;13.074;2023-09-08T00:45:55;18.10;99.90
20233;DHT22;37438;55.674;13.074;2023-09-08T00:49:00;18.20;99.90
20233;DHT22;37438;55.674;13.074;2023-09-08T00:52:05;18.10;99.90
20233;DHT22;37438;55.674;13.074;2023-09-08T00:55:10;18.10;99.90
20233;DHT22;37438;55.674;13.074;2023-09-08T00:58:15;18.00;99.90
20233;DHT22;37438;55.674;13.074;2023-09-08T01:01:19;18.00;99.90
20233;DHT22;37438;55.674;13.074;2023-09-08T01:04:24;18.00;99.90
20233;DHT22;37438;55.674;13.074;2023-09-08T01:07:30;18.00;99.90
20233;DHT22;37438;55.674;13.074;2023-09-08T01:10:36;18.00;99.90
20233;DHT22;37438;55.674;13.074;2023-09-08T01:13:43;18.00;99.90
20233;DHT22;37438;55.674;13.074;2023-09-08T01:16:47;18.00;99.90
20233;DHT22;37438;55.674;13.074;2023-09-08T01:19:55;17.90;99.90
20233;DHT22;37438;55.674;13.074;2023-09-08T01:26:40;18.00;99.90
20233;DHT22;37438;55.674;13.074;2023-09-08T01:29:46;18.00;99.90
20233;DHT22;37438;55.674;13.074;2023-09-08T01:32:52;18.10;99.90
20233;DHT22;37438;55.674;13.074;2023-09-08T01:35:57;18.00;99.90
20233;DHT22;37438;55.674;13.074;2023-09-08T01:39:03;18.00;99.90
20233;DHT22;37438;55.674;13.074;2023-09-08T01:42:07;18.00;99.90
20233;DHT22;37438;55.674;13.074;2023-09-08T01:45:11;18.00;99.90
20233;DHT22;37438;55.674;13.074;2023-09-08T01:48:16;17.80;99.90
20233;DHT22;37438;55.674;13.074;2023-09-08T01:51:21;17.70;99.90
20233;DHT22;37438;55.674;13.074;2023-09-08T01:54:25;17.70;99.90
20233;DHT22;37438;55.674;13.074;2023-09-08T01:57:29;17.60;99.90
20233;DHT22;37438;55.674;13.074;2023-09-08T02:00:34;17.60;99.90
20233;DHT22;37438;55.674;13.074;2023-09-08T02:03:38;17.60;99.90
20233;DHT22;37438;55.674;13.074;2023-09-08T02:06:43;17.40;99.90
20233;DHT22;37438;55.674;13.074;2023-09-08T02:09:47;17.40;99.90
20233;DHT22;37438;55.674;13.074;2023-09-08T02:12:52;17.40;99.90
20233;DHT22;37438;55.674;13.074;2023-09-08T02:15:56;17.30;99.90
20233;DHT22;37438;55.674;13.074;2023-09-08T02:19:01;17.20;99.90
20233;DHT22;37438;55.674;13.074;2023-09-08T02:22:06;17.10;99.90
20233;DHT22;37438;55.674;13.074;2023-09-08T02:25:10;17.20;99.90
20233;DHT22;37438;55.674;13.074;2023-09-08T02:28:15;17.00;99.90
20233;DHT22;37438;55.674;13.074;2023-09-08T02:31:20;17.00;99.90
20233;DHT22;37438;55.674;13.074;2023-09-08T02:34:24;17.00;99.90
20233;DHT22;37438;55.674;13.074;2023-09-08T02:37:29;17.00;99.90
20233;DHT22;37438;55.674;13.074;2023-09-08T02:40:34;16.90;99.90
20233;DHT22;37438;55.674;13.074;2023-09-08T02:43:39;16.90;99.90
20233;DHT22;37438;55.674;13.074;2023-09-08T02:46:44;16.80;99.90
20233;DHT22;37438;55.674;13.074;2023-09-08T02:49:48;16.90;99.90
20233;DHT22;37438;55.674;13.074;2023-09-08T02:52:53;16.90;99.90
20233;DHT22;37438;55.674;13.074;2023-09-08T02:55:58;17.00;99.90
20233;DHT22;37438;55.674;13.074;2023-09-08T02:59:03;17.00;99.90
20233;DHT22;37438;55.674;13.074;2023-09-08T03:02:08;16.90;99.90
20233;DHT22;37438;55.674;13.074;2023-09-08T03:05:12;17.00;99.90
20233;DHT22;37438;55.674;13.074;2023-09-08T03:08:17;16.90;99.90
20233;DHT22;37438;55.674;13.074;2023-09-08T03:11:21;16.90;99.90
20233;DHT22;37438;55.674;13.074;2023-09-08T03:14:26;17.00;99.90
20233;DHT22;37438;55.674;13.074;2023-09-08T03:17:31;17.00;99.90
20233;DHT22;37438;55.674;13.074;2023-09-08T03:20:36;17.00;99.90
20233;DHT22;37438;55.674;13.074;2023-09-08T03:23:42;17.00;99.90
20233;DHT22;37438;55.674;13.074;2023-09-08T03:26:47;17.00;99.90
20233;DHT22;37438;55.674;13.074;2023-09-08T03:29:51;17.00;99.90
20233;DHT22;37438;55.674;13.074;2023-09-08T03:32:56;17.10;99.90
20233;DHT22;37438;55.674;13.074;2023-09-08T03:36:01;17.00;99.90
20233;DHT22;37438;55.674;13.074;2023-09-08T03:39:06;17.00;99.90
20233;DHT22;37438;55.674;13.074;2023-09-08T03:42:14;17.00;99.90
20233;DHT22;37438;55.674;13.074;2023-09-08T03:45:19;17.00;99.90
20233;DHT22;37438;55.674;13.074;2023-09-08T03:48:23;17.00;99.90
20233;DHT22;37438;55.674;13.074;2023-09-08T03:51:28;17.00;99.90
20233;DHT22;37438;55.674;13.074;2023-09-08T03:54:33;17.10;99.90
20233;DHT22;37438;55.674;13.074;2023-09-08T03:57:37;17.00;99.90
20233;DHT22;37438;55.674;13.074;2023-09-08T04:00:42;17.00;99.90
20233;DHT22;37438;55.674;13.074;2023-09-08T04:03:47;16.90;99.90
20233;DHT22;37438;55.674;13.074;2023-09-08T04:06:52;17.00;99.90
20233;DHT22;37438;55.674;13.074;2023-09-08T04:09:56;17.00;99.90
20233;DHT22;37438;55.674;13.074;2023-09-08T04:13:01;17.00;99.90
20233;DHT22;37438;55.674;13.074;2023-09-08T04:16:06;17.00;99.90
20233;DHT22;37438;55.674;13.074;2023-09-08T04:19:10;16.90;99.90
20233;DHT22;37438;55.674;13.074;2023-09-08T04:22:14;16.90;99.90
20233;DHT22;37438;55.674;13.074;2023-09-08T04:25:19;16.90;99.90
20233;DHT22;37438;55.674;13.074;2023-09-08T04:28:24;16.80;99.90
20233;DHT22;37438;55.674;13.074;2023-09-08T04:31:28;16.90;99.90
20233;DHT22;37438;55.674;13.074;2023-09-08T04:34:33;16.70;99.90
20233;DHT22;37438;55.674;13.074;2023-09-08T04:37:37;16.50;99.90
20233;DHT22;37438;55.674;13.074;2023-09-08T04:40:45;16.50;99.90
20233;DHT22;37438;55.674;13.074;2023-09-08T04:43:51;16.50;99.90
20233;DHT22;37438;55.674;13.074;2023-09-08T04:46:56;16.50;99.90
20233;DHT22;37438;55.674;13.074;2023-09-08T04:50:02;16.60;99.90
20233;DHT22;37438;55.674;13.074;2023-09-08T04:53:06;16.50;99.90
20233;DHT22;37438;55.674;13.074;2023-09-08T04:56:13;16.60;99.90
20233;DHT22;37438;55.674;13.074;2023-09-08T04:59:19;16.60;99.90
20233;DHT22;37438;55.674;13.074;2023-09-08T05:02:24;16.70;99.90
20233;DHT22;37438;55.674;13.074;2023-09-08T05:05:28;16.80;99.90
20233;DHT22;37438;55.674;13.074;2023-09-08T05:08:33;16.80;99.90
20233;DHT22;37438;55.674;13.074;2023-09-08T05:11:38;16.90;99.90
20233;DHT22;37438;55.674;13.074;2023-09-08T05:14:43;16.90;99.90
20233;DHT22;37438;55.674;13.074;2023-09-08T05:17:47;17.00;99.90
20233;DHT22;37438;55.674;13.074;2023-09-08T05:20:54;17.20;99.90
20233;DHT22;37438;55.674;13.074;2023-09-08T05:23:59;17.30;99.90
20233;DHT22;37438;55.674;13.074;2023-09-08T05:27:04;17.60;99.90
20233;DHT22;37438;55.674;13.074;2023-09-08T05:30:09;17.90;99.90
20233;DHT22;37438;55.674;13.074;2023-09-08T05:33:15;18.20;99.90
20233;DHT22;37438;55.674;13.074;2023-09-08T05:36:19;18.50;99.90
20233;DHT22;37438;55.674;13.074;2023-09-08T05:39:24;18.80;99.90
20233;DHT22;37438;55.674;13.074;2023-09-08T05:42:29;19.00;99.90
20233;DHT22;37438;55.674;13.074;2023-09-08T05:45:34;19.30;99.90
20233;DHT22;37438;55.674;13.074;2023-09-08T05:48:40;19.50;99.90
20233;DHT22;37438;55.674;13.074;2023-09-08T05:51:45;19.70;99.90
20233;DHT22;37438;55.674;13.074;2023-09-08T05:54:50;20.00;99.90
20233;DHT22;37438;55.674;13.074;2023-09-08T05:57:54;20.20;99.90
20233;DHT22;37438;55.674;13.074;2023-09-08T06:01:02;20.40;99.90
20233;DHT22;37438;55.674;13.074;2023-09-08T06:04:07;20.70;99.90
20233;DHT22;37438;55.674;13.074;2023-09-08T06:07:12;20.90;99.90
20233;DHT22;37438;55.674;13.074;2023-09-08T06:10:17;21.10;99.90
20233;DHT22;37438;55.674;13.074;2023-09-08T06:13:22;21.10;99.90
20233;DHT22;37438;55.674;13.074;2023-09-08T06:16:27;21.00;99.90
20233;DHT22;37438;55.674;13.074;2023-09-08T06:19:31;21.30;99.90
20233;DHT22;37438;55.674;13.074;2023-09-08T06:22:36;21.30;99.90
20233;DHT22;37438;55.674;13.074;2023-09-08T06:25:40;21.50;99.90
20233;DHT22;37438;55.674;13.074;2023-09-08T06:28:46;21.80;99.90
20233;DHT22;37438;55.674;13.074;2023-09-08T06:31:51;22.20;99.90
20233;DHT22;37438;55.674;13.074;2023-09-08T06:34:55;21.90;99.90
20233;DHT22;37438;55.674;13.074;2023-09-08T06:38:00;21.60;99.90
20233;DHT22;37438;55.674;13.074;2023-09-08T06:41:13;21.80;99.90
20233;DHT22;37438;55.674;13.074;2023-09-08T06:44:20;22.20;99.90
20233;DHT22;37438;55.674;13.074;2023-09-08T06:47:25;22.40;99.90
20233;DHT22;37438;55.674;13.074;2023-09-08T06:50:30;22.80;99.90
20233;DHT22;37438;55.674;13.074;2023-09-08T06:53:36;22.90;99.90
20233;DHT22;37438;55.674;13.074;2023-09-08T06:56:40;22.90;99.90
20233;DHT22;37438;55.674;13.074;2023-09-08T06:59:45;22.80;99.90
20233;DHT22;37438;55.674;13.074;2023-09-08T07:02:50;22.80;99.90
20233;DHT22;37438;55.674;13.074;2023-09-08T07:05:55;23.40;99.90
20233;DHT22;37438;55.674;13.074;2023-09-08T07:09:01;23.80;99.90
20233;DHT22;37438;55.674;13.074;2023-09-08T07:12:06;23.90;99.90
20233;DHT22;37438;55.674;13.074;2023-09-08T07:15:11;23.60;99.90
20233;DHT22;37438;55.674;13.074;2023-09-08T07:18:15;24.10;99.90
20233;DHT22;37438;55.674;13.074;2023-09-08T07:21:21;24.40;99.90
20233;DHT22;37438;55.674;13.074;2023-09-08T07:24:26;24.40;99.90
20233;DHT22;37438;55.674;13.074;2023-09-08T07:27:31;24.80;99.90
20233;DHT22;37438;55.674;13.074;2023-09-08T07:30:35;25.20;99.90
20233;DHT22;37438;55.674;13.074;2023-09-08T07:33:40;24.90;99.90
20233;DHT22;37438;55.674;13.074;2023-09-08T07:36:44;25.00;99.90
20233;DHT22;37438;55.674;13.074;2023-09-08T07:39:50;24.80;99.90
20233;DHT22;37438;55.674;13.074;2023-09-08T07:42:56;24.50;99.90
20233;DHT22;37438;55.674;13.074;2023-09-08T07:46:01;25.10;99.90
20233;DHT22;37438;55.674;13.074;2023-09-08T07:49:05;24.80;99.90
20233;DHT22;37438;55.674;13.074;2023-09-08T07:52:10;25.00;99.90
20233;DHT22;37438;55.674;13.074;2023-09-08T07:55:15;25.70;99.90
20233;DHT22;37438;55.674;13.074;2023-09-08T07:58:19;26.00;99.90
20233;DHT22;37438;55.674;13.074;2023-09-08T08:01:24;26.30;99.90
20233;DHT22;37438;55.674;13.074;2023-09-08T08:04:29;26.40;99.90
20233;DHT22;37438;55.674;13.074;2023-09-08T08:07:34;26.60;99.90
20233;DHT22;37438;55.674;13.074;2023-09-08T08:10:40;26.60;99.90
20233;DHT22;37438;55.674;13.074;2023-09-08T08:13:45;26.80;99.90
20233;DHT22;37438;55.674;13.074;2023-09-08T08:16:50;27.20;99.90
20233;DHT22;37438;55.674;13.074;2023-09-08T08:19:55;27.20;99.90
20233;DHT22;37438;55.674;13.074;2023-09-08T08:23:02;28.50;99.90
20233;DHT22;37438;55.674;13.074;2023-09-08T08:26:07;28.60;99.90
20233;DHT22;37438;55.674;13.074;2023-09-08T08:29:12;28.00;99.90
20233;DHT22;37438;55.674;13.074;2023-09-08T08:32:17;27.80;99.90
20233;DHT22;37438;55.674;13.074;2023-09-08T08:35:21;28.30;99.90
20233;DHT22;37438;55.674;13.074;2023-09-08T08:38:26;28.40;99.90
20233;DHT22;37438;55.674;13.074;2023-09-08T08:41:31;28.30;99.90
20233;DHT22;37438;55.674;13.074;2023-09-08T08:44:39;28.20;99.90
20233;DHT22;37438;55.674;13.074;2023-09-08T08:47:44;28.90;99.90
20233;DHT22;37438;55.674;13.074;2023-09-08T08:50:49;28.90;99.90
20233;DHT22;37438;55.674;13.074;2023-09-08T08:53:55;28.80;99.90
20233;DHT22;37438;55.674;13.074;2023-09-08T08:57:00;29.10;99.90
20233;DHT22;37438;55.674;13.074;2023-09-08T09:00:08;30.00;99.90
20233;DHT22;37438;55.674;13.074;2023-09-08T09:03:13;30.20;99.90
20233;DHT22;37438;55.674;13.074;2023-09-08T09:06:19;30.30;99.90
20233;DHT22;37438;55.674;13.074;2023-09-08T09:09:24;30.60;99.90
20233;DHT22;37438;55.674;13.074;2023-09-08T09:12:29;30.60;90.30
20233;DHT22;37438;55.674;13.074;2023-09-08T09:15:34;30.60;31.70
20233;DHT22;37438;55.674;13.074;2023-09-08T09:21:59;31.20;99.90
20233;DHT22;37438;55.674;13.074;2023-09-08T09:25:04;30.70;1.00
20233;DHT22;37438;55.674;13.074;2023-09-08T09:28:12;30.80;99.90
20233;DHT22;37438;55.674;13.074;2023-09-08T09:31:16;30.80;99.90
20233;DHT22;37438;55.674;13.074;2023-09-08T09:34:22;31.30;99.90
20233;DHT22;37438;55.674;13.074;2023-09-08T09:37:26;31.90;99.90
20233;DHT22;37438;55.674;13.074;2023-09-08T09:40:31;32.00;99.90
20233;DHT22;37438;55.674;13.074;2023-09-08T09:43:37;32.20;97.20
20233;DHT22;37438;55.674;13.074;2023-09-08T09:46:48;33.00;68.40
20233;DHT22;37438;55.674;13.074;2023-09-08T09:49:53;32.40;52.90
20233;DHT22;37438;55.674;13.074;2023-09-08T09:52:58;32.60;38.90
20233;DHT22;37438;55.674;13.074;2023-09-08T09:56:04;32.50;32.10
20233;DHT22;37438;55.674;13.074;2023-09-08T09:59:10;31.80;46.40
20233;DHT22;37438;55.674;13.074;2023-09-08T10:02:15;31.50;55.00
20233;DHT22;37438;55.674;13.074;2023-09-08T10:05:19;33.10;26.60
20233;DHT22;37438;55.674;13.074;2023-09-08T10:08:24;33.40;5.30
20233;DHT22;37438;55.674;13.074;2023-09-08T10:11:30;32.80;1.00
20233;DHT22;37438;55.674;13.074;2023-09-08T10:14:40;32.40;2.60
20233;DHT22;37438;55.674;13.074;2023-09-08T10:17:46;31.90;17.30
20233;DHT22;37438;55.674;13.074;2023-09-08T10:20:56;32.10;3.60
20233;DHT22;37438;55.674;13.074;2023-09-08T10:24:14;32.50;5.40
20233;DHT22;37438;55.674;13.074;2023-09-08T10:27:20;32.40;1.80
20233;DHT22;37438;55.674;13.074;2023-09-08T10:30:28;33.20;1.00
20233;DHT22;37438;55.674;13.074;2023-09-08T10:33:33;32.90;1.00
20233;DHT22;37438;55.674;13.074;2023-09-08T10:36:39;33.70;1.00
20233;DHT22;37438;55.674;13.074;2023-09-08T10:39:44;34.10;1.00
20233;DHT22;37438;55.674;13.074;2023-09-08T10:42:49;33.80;1.00
20233;DHT22;37438;55.674;13.074;2023-09-08T10:45:53;34.40;1.00
20233;DHT22;37438;55.674;13.074;2023-09-08T10:52:08;32.70;1.00
20233;DHT22;37438;55.674;13.074;2023-09-08T10:58:32;32.50;1.00
20233;DHT22;37438;55.674;13.074;2023-09-08T11:01:30;33.00;1.00
20233;DHT22;37438;55.674;13.074;2023-09-08T11:04:34;33.40;1.00
20233;DHT22;37438;55.674;13.074;2023-09-08T11:07:41;33.20;1.00
20233;DHT22;37438;55.674;13.074;2023-09-08T11:17:14;32.50;1.00
20233;DHT22;37438;55.674;13.074;2023-09-08T11:20:27;32.50;1.00
20233;DHT22;37438;55.674;13.074;2023-09-08T11:26:39;33.60;1.00
20233;DHT22;37438;55.674;13.074;2023-09-08T11:33:24;34.10;1.00
20233;DHT22;37438;55.674;13.074;2023-09-08T11:36:30;33.50;1.00
20233;DHT22;37438;55.674;13.074;2023-09-08T11:39:39;32.90;1.00
20233;DHT22;37438;55.674;13.074;2023-09-08T11:42:45;32.30;1.00
20233;DHT22;37438;55.674;13.074;2023-09-08T11:45:51;33.00;1.00
20233;DHT22;37438;55.674;13.074;2023-09-08T11:49:03;32.80;1.00
20233;DHT22;37438;55.674;13.074;2023-09-08T11:52:59;32.80;1.00
20233;DHT22;37438;55.674;13.074;2023-09-08T11:56:49;31.70;1.00
20233;DHT22;37438;55.674;13.074;2023-09-08T11:59:55;31.40;1.00
20233;DHT22;37438;55.674;13.074;2023-09-08T12:03:14;32.00;1.00
20233;DHT22;37438;55.674;13.074;2023-09-08T12:06:19;33.20;1.00
20233;DHT22;37438;55.674;13.074;2023-09-08T12:15:52;33.70;1.00
20233;DHT22;37438;55.674;13.074;2023-09-08T12:18:57;33.20;1.00
20233;DHT22;37438;55.674;13.074;2023-09-08T12:25:33;34.30;1.00
20233;DHT22;37438;55.674;13.074;2023-09-08T12:29:00;33.30;99.90
20233;DHT22;37438;55.674;13.074;2023-09-08T12:32:38;34.00;99.90
20233;DHT22;37438;55.674;13.074;2023-09-08T12:36:43;33.20;99.90
20233;DHT22;37438;55.674;13.074;2023-09-08T12:40:11;33.10;99.90
20233;DHT22;37438;55.674;13.074;2023-09-08T12:44:17;33.90;99.90
20233;DHT22;37438;55.674;13.074;2023-09-08T12:47:59;32.70;99.90
20233;DHT22;37438;55.674;13.074;2023-09-08T12:51:53;32.30;99.90
20233;DHT22;37438;55.674;13.074;2023-09-08T12:55:22;32.00;99.90
20233;DHT22;37438;55.674;13.074;2023-09-08T12:58:56;32.60;99.90
20233;DHT22;37438;55.674;13.074;2023-09-08T13:02:46;33.20;99.90
20233;DHT22;37438;55.674;13.074;2023-09-08T13:06:32;31.40;99.90
20233;DHT22;37438;55.674;13.074;2023-09-08T13:09:39;31.90;99.90
20233;DHT22;37438;55.674;13.074;2023-09-08T13:12:43;32.50;99.90
20233;DHT22;37438;55.674;13.074;2023-09-08T13:15:48;31.80;99.90
20233;DHT22;37438;55.674;13.074;2023-09-08T13:18:54;32.10;99.90
20233;DHT22;37438;55.674;13.074;2023-09-08T13:21:59;32.00;99.90
20233;DHT22;37438;55.674;13.074;2023-09-08T13:25:05;32.10;99.90
20233;DHT22;37438;55.674;13.074;2023-09-08T13:28:10;32.20;99.90
20233;DHT22;37438;55.674;13.074;2023-09-08T13:31:14;32.80;99.90
20233;DHT22;37438;55.674;13.074;2023-09-08T13:34:18;32.10;99.90
20233;DHT22;37438;55.674;13.074;2023-09-08T13:37:23;32.40;99.90
20233;DHT22;37438;55.674;13.074;2023-09-08T13:40:28;31.60;99.90
20233;DHT22;37438;55.674;13.074;2023-09-08T13:43:33;31.10;99.90
20233;DHT22;37438;55.674;13.074;2023-09-08T13:46:38;31.30;99.90
20233;DHT22;37438;55.674;13.074;2023-09-08T13:49:42;31.40;99.90
20233;DHT22;37438;55.674;13.074;2023-09-08T13:52:47;31.00;99.90
20233;DHT22;37438;55.674;13.074;2023-09-08T13:55:55;31.00;99.90
20233;DHT22;37438;55.674;13.074;2023-09-08T13:59:01;31.10;99.90
20233;DHT22;37438;55.674;13.074;2023-09-08T14:02:08;30.70;99.90
20233;DHT22;37438;55.674;13.074;2023-09-08T14:05:32;31.50;99.90
20233;DHT22;37438;55.674;13.074;2023-09-08T14:08:40;31.50;99.90
20233;DHT22;37438;55.674;13.074;2023-09-08T14:12:05;31.10;99.90
20233;DHT22;37438;55.674;13.074;2023-09-08T14:18:51;32.00;99.90
20233;DHT22;37438;55.674;13.074;2023-09-08T14:21:57;31.30;99.90
20233;DHT22;37438;55.674;13.074;2023-09-08T14:25:03;31.10;99.90
20233;DHT22;37438;55.674;13.074;2023-09-08T14:28:08;30.90;99.90
20233;DHT22;37438;55.674;13.074;2023-09-08T14:35:09;30.20;99.90
20233;DHT22;37438;55.674;13.074;2023-09-08T14:54:55;31.10;99.90
20233;DHT22;37438;55.674;13.074;2023-09-08T14:58:00;30.90;99.90
20233;DHT22;37438;55.674;13.074;2023-09-08T15:01:04;30.30;99.90
20233;DHT22;37438;55.674;13.074;2023-09-08T15:04:11;29.70;99.90
20233;DHT22;37438;55.674;13.074;2023-09-08T15:07:16;30.30;99.90
20233;DHT22;37438;55.674;13.074;2023-09-08T15:10:21;31.40;99.90
20233;DHT22;37438;55.674;13.074;2023-09-08T15:13:25;30.40;99.90
20233;DHT22;37438;55.674;13.074;2023-09-08T15:16:30;29.90;99.90
20233;DHT22;37438;55.674;13.074;2023-09-08T15:19:34;29.20;1.00
20233;DHT22;37438;55.674;13.074;2023-09-08T15:22:39;29.50;99.90
20233;DHT22;37438;55.674;13.074;2023-09-08T15:25:57;29.50;1.00
20233;DHT22;37438;55.674;13.074;2023-09-08T15:29:01;29.90;99.90
20233;DHT22;37438;55.674;13.074;2023-09-08T15:32:05;30.10;99.90
20233;DHT22;37438;55.674;13.074;2023-09-08T15:35:10;30.40;99.90
20233;DHT22;37438;55.674;13.074;2023-09-08T15:38:15;30.10;99.90
20233;DHT22;37438;55.674;13.074;2023-09-08T15:41:19;31.50;99.90
20233;DHT22;37438;55.674;13.074;2023-09-08T15:44:24;32.20;99.90
20233;DHT22;37438;55.674;13.074;2023-09-08T15:47:28;31.10;99.90
20233;DHT22;37438;55.674;13.074;2023-09-08T15:50:33;30.50;99.90
20233;DHT22;37438;55.674;13.074;2023-09-08T15:53:38;30.30;99.90
20233;DHT22;37438;55.674;13.074;2023-09-08T15:56:43;30.80;99.90
20233;DHT22;37438;55.674;13.074;2023-09-08T15:59:50;30.10;99.90
20233;DHT22;37438;55.674;13.074;2023-09-08T16:02:54;30.60;99.90
20233;DHT22;37438;55.674;13.074;2023-09-08T16:05:59;31.10;99.90
20233;DHT22;37438;55.674;13.074;2023-09-08T16:09:04;30.30;99.90
20233;DHT22;37438;55.674;13.074;2023-09-08T16:12:10;30.00;99.90
20233;DHT22;37438;55.674;13.074;2023-09-08T16:15:15;30.50;99.90
20233;DHT22;37438;55.674;13.074;2023-09-08T16:18:19;30.30;99.90
20233;DHT22;37438;55.674;13.074;2023-09-08T16:21:23;30.40;99.90
20233;DHT22;37438;55.674;13.074;2023-09-08T16:24:28;30.10;99.90
20233;DHT22;37438;55.674;13.074;2023-09-08T16:27:32;29.50;99.90
20233;DHT22;37438;55.674;13.074;2023-09-08T16:30:37;29.50;99.90
20233;DHT22;37438;55.674;13.074;2023-09-08T16:33:41;29.80;99.90
20233;DHT22;37438;55.674;13.074;2023-09-08T16:36:46;30.40;99.90
20233;DHT22;37438;55.674;13.074;2023-09-08T16:39:51;29.80;99.90
20233;DHT22;37438;55.674;13.074;2023-09-08T16:42:55;29.20;1.00
20233;DHT22;37438;55.674;13.074;2023-09-08T16:46:00;26.70;1.00
20233;DHT22;37438;55.674;13.074;2023-09-08T16:49:05;25.60;1.00
20233;DHT22;37438;55.674;13.074;2023-09-08T16:52:10;24.90;25.70
20233;DHT22;37438;55.674;13.074;2023-09-08T16:55:14;24.60;46.80
20233;DHT22;37438;55.674;13.074;2023-09-08T16:58:19;24.40;67.50
20233;DHT22;37438;55.674;13.074;2023-09-08T17:01:24;24.10;82.70
20233;DHT22;37438;55.674;13.074;2023-09-08T17:04:28;23.90;98.40
20233;DHT22;37438;55.674;13.074;2023-09-08T17:07:34;23.80;99.90
20233;DHT22;37438;55.674;13.074;2023-09-08T17:10:39;23.70;99.90
20233;DHT22;37438;55.674;13.074;2023-09-08T17:13:44;23.40;99.90
20233;DHT22;37438;55.674;13.074;2023-09-08T17:16:48;23.20;99.90
20233;DHT22;37438;55.674;13.074;2023-09-08T17:19:53;23.10;99.90
20233;DHT22;37438;55.674;13.074;2023-09-08T17:22:59;23.00;99.90
20233;DHT22;37438;55.674;13.074;2023-09-08T17:26:04;22.80;1.00
20233;DHT22;37438;55.674;13.074;2023-09-08T17:29:09;22.70;80.30
20233;DHT22;37438;55.674;13.074;2023-09-08T17:32:13;22.60;99.90
20233;DHT22;37438;55.674;13.074;2023-09-08T17:35:18;22.40;74.50
20233;DHT22;37438;55.674;13.074;2023-09-08T17:38:23;22.30;99.90
20233;DHT22;37438;55.674;13.074;2023-09-08T17:41:28;22.30;99.90
20233;DHT22;37438;55.674;13.074;2023-09-08T17:44:32;22.10;99.90
20233;DHT22;37438;55.674;13.074;2023-09-08T17:47:37;22.00;1.00
20233;DHT22;37438;55.674;13.074;2023-09-08T17:50:42;22.00;1.00
20233;DHT22;37438;55.674;13.074;2023-09-08T17:53:46;21.90;1.00
20233;DHT22;37438;55.674;13.074;2023-09-08T17:56:51;21.80;1.00
20233;DHT22;37438;55.674;13.074;2023-09-08T17:59:56;21.70;1.00
20233;DHT22;37438;55.674;13.074;2023-09-08T18:03:01;21.60;23.00
20233;DHT22;37438;55.674;13.074;2023-09-08T18:06:06;21.50;94.90
20233;DHT22;37438;55.674;13.074;2023-09-08T18:09:13;21.50;99.90
20233;DHT22;37438;55.674;13.074;2023-09-08T18:12:18;21.40;99.90
20233;DHT22;37438;55.674;13.074;2023-09-08T18:15:22;21.30;99.90
20233;DHT22;37438;55.674;13.074;2023-09-08T18:18:27;21.10;99.90
20233;DHT22;37438;55.674;13.074;2023-09-08T18:21:32;21.10;99.90
20233;DHT22;37438;55.674;13.074;2023-09-08T18:24:37;21.00;99.90
20233;DHT22;37438;55.674;13.074;2023-09-08T18:27:41;20.90;99.90
20233;DHT22;37438;55.674;13.074;2023-09-08T18:30:51;20.80;4.00
20233;DHT22;37438;55.674;13.074;2023-09-08T18:33:57;20.70;99.90
20233;DHT22;37438;55.674;13.074;2023-09-08T18:37:02;20.70;99.90
20233;DHT22;37438;55.674;13.074;2023-09-08T18:40:07;20.60;99.90
20233;DHT22;37438;55.674;13.074;2023-09-08T18:43:15;20.50;99.90
20233;DHT22;37438;55.674;13.074;2023-09-08T18:46:22;20.40;1.00
20233;DHT22;37438;55.674;13.074;2023-09-08T18:49:37;20.30;99.90
20233;DHT22;37438;55.674;13.074;2023-09-08T18:57:27;20.20;34.80
20233;DHT22;37438;55.674;13.074;2023-09-08T19:00:44;20.10;1.00
20233;DHT22;37438;55.674;13.074;2023-09-08T19:03:49;20.00;99.90
20233;DHT22;37438;55.674;13.074;2023-09-08T19:06:53;20.00;99.90
20233;DHT22;37438;55.674;13.074;2023-09-08T19:10:00;20.00;1.00
20233;DHT22;37438;55.674;13.074;2023-09-08T19:13:06;19.90;99.90
20233;DHT22;37438;55.674;13.074;2023-09-08T19:16:11;19.80;99.90
20233;DHT22;37438;55.674;13.074;2023-09-08T19:19:16;19.80;25.00
20233;DHT22;37438;55.674;13.074;2023-09-08T19:22:20;19.70;99.90
20233;DHT22;37438;55.674;13.074;2023-09-08T19:25:29;19.70;99.90
20233;DHT22;37438;55.674;13.074;2023-09-08T19:28:33;19.60;99.90
20233;DHT22;37438;55.674;13.074;2023-09-08T19:31:38;19.60;99.90
20233;DHT22;37438;55.674;13.074;2023-09-08T19:34:43;19.60;99.90
20233;DHT22;37438;55.674;13.074;2023-09-08T19:37:48;19.60;99.90
20233;DHT22;37438;55.674;13.074;2023-09-08T19:41:00;19.50;99.90
20233;DHT22;37438;55.674;13.074;2023-09-08T19:44:06;19.50;99.90
20233;DHT22;37438;55.674;13.074;2023-09-08T19:47:12;19.50;99.90
20233;DHT22;37438;55.674;13.074;2023-09-08T19:50:16;19.40;99.90
20233;DHT22;37438;55.674;13.074;2023-09-08T19:53:21;19.40;99.90
20233;DHT22;37438;55.674;13.074;2023-09-08T19:56:28;19.40;99.90
20233;DHT22;37438;55.674;13.074;2023-09-08T19:59:32;19.30;99.90
20233;DHT22;37438;55.674;13.074;2023-09-08T20:02:37;19.30;99.90
20233;DHT22;37438;55.674;13.074;2023-09-08T20:05:43;19.10;99.90
20233;DHT22;37438;55.674;13.074;2023-09-08T20:08:48;19.00;99.90
20233;DHT22;37438;55.674;13.074;2023-09-08T20:11:52;19.00;99.90
20233;DHT22;37438;55.674;13.074;2023-09-08T20:14:57;18.90;99.90
20233;DHT22;37438;55.674;13.074;2023-09-08T20:18:01;18.80;99.90
20233;DHT22;37438;55.674;13.074;2023-09-08T20:21:07;18.80;99.90
20233;DHT22;37438;55.674;13.074;2023-09-08T20:24:13;18.80;99.90
20233;DHT22;37438;55.674;13.074;2023-09-08T20:27:18;18.70;99.90
20233;DHT22;37438;55.674;13.074;2023-09-08T20:30:23;18.70;99.90